Time;durP1;ratioP1;P1;durP2;ratioP2;P2;SDS_P1;SDS_P2;PMS_P1;PMS_P2;Temp;Humidity;BMP_temperature;BMP_pressure;BME280_temperature;BME280_humidity;BME280_pressure;Samples;Min_cycle;Max_cycle;Signal;HPM_P1;HPM_P2
2023/07/22 00:02:52;;;;;;;8.95;6.50;;;11.50;99.90;;;;;;7288612;32;20153;-55
2023/07/22 00:06:53;;;;;;;9.60;7.45;;;11.50;99.90;;;;;;7267971;32;20526;-55
2023/07/22 00:10:55;;;;;;;10.68;6.68;;;11.50;99.90;;;;;;7271354;32;20643;-55
2023/07/22 00:14:57;;;;;;;8.98;6.35;;;11.40;99.90;;;;;;7292930;32;20096;-55
2023/07/22 00:18:59;;;;;;;10.35;7.30;;;11.50;99.90;;;;;;7297307;32;20617;-55
2023/07/22 00:23:01;;;;;;;9.88;6.60;;;11.50;99.90;;;;;;7290991;32;20134;-55
2023/07/22 00:27:03;;;;;;;9.88;6.68;;;11.60;99.90;;;;;;7285865;32;20126;-55
2023/07/22 00:31:04;;;;;;;9.95;7.03;;;11.70;99.90;;;;;;7280276;32;20298;-55
2023/07/22 00:35:07;;;;;;;10.70;7.47;;;11.80;99.90;;;;;;7283975;32;20261;-55
2023/07/22 00:39:08;;;;;;;8.93;6.78;;;11.80;99.90;;;;;;7294440;32;20162;-55
2023/07/22 00:43:11;;;;;;;11.50;7.12;;;11.80;99.90;;;;;;7286136;32;20092;-56
2023/07/22 00:47:12;;;;;;;9.90;6.68;;;11.90;99.90;;;;;;7269414;32;20115;-55
2023/07/22 00:51:14;;;;;;;11.60;6.70;;;11.90;99.90;;;;;;7275890;32;20088;-55
2023/07/22 00:55:16;;;;;;;10.80;7.20;;;12.00;99.90;;;;;;7286212;32;20107;-55
2023/07/22 00:59:19;;;;;;;12.88;7.00;;;12.10;99.90;;;;;;7257642;32;20508;-55
2023/07/22 01:03:20;;;;;;;8.43;6.68;;;12.10;99.90;;;;;;7275093;32;20140;-55
2023/07/22 01:07:23;;;;;;;8.82;6.90;;;12.20;99.90;;;;;;7302041;32;20104;-55
2023/07/22 01:11:25;;;;;;;10.38;7.30;;;12.20;99.90;;;;;;7284550;32;20134;-55
2023/07/22 01:15:28;;;;;;;9.38;7.25;;;12.20;99.90;;;;;;7264531;32;20199;-55
2023/07/22 01:19:32;;;;;;;16.15;8.70;;;12.30;99.90;;;;;;7288557;32;20108;-55
2023/07/22 01:23:36;;;;;;;9.00;6.68;;;12.40;99.90;;;;;;7282056;32;20136;-55
2023/07/22 01:27:37;;;;;;;11.10;7.07;;;12.50;99.90;;;;;;7282143;32;20757;-55
2023/07/22 01:31:40;;;;;;;9.98;7.32;;;12.60;99.90;;;;;;7289661;32;20123;-55
2023/07/22 01:35:42;;;;;;;10.18;7.03;;;12.60;99.90;;;;;;7287736;32;20505;-55
2023/07/22 01:39:43;;;;;;;9.70;7.78;;;12.70;99.90;;;;;;7282027;32;20220;-55
2023/07/22 01:43:45;;;;;;;10.35;8.20;;;12.60;99.90;;;;;;7267854;32;20287;-55
2023/07/22 01:47:48;;;;;;;12.73;8.50;;;12.70;99.90;;;;;;7269458;32;20123;-55
2023/07/22 01:51:49;;;;;;;11.82;8.48;;;12.70;99.90;;;;;;7297865;32;20130;-55
2023/07/22 01:55:51;;;;;;;13.27;8.15;;;12.80;99.90;;;;;;7287527;32;20104;-55
2023/07/22 01:59:53;;;;;;;13.27;9.43;;;12.90;99.90;;;;;;7282474;32;20596;-55
2023/07/22 02:03:55;;;;;;;12.23;8.85;;;13.00;99.90;;;;;;7280927;32;20248;-55
2023/07/22 02:07:57;;;;;;;14.10;9.80;;;13.00;99.90;;;;;;7261674;32;20130;-55
2023/07/22 02:11:59;;;;;;;14.13;8.48;;;13.10;99.90;;;;;;7280172;32;20177;-55
2023/07/22 02:16:02;;;;;;;10.38;7.97;;;13.20;99.90;;;;;;7282560;32;20514;-56
2023/07/22 02:20:04;;;;;;;12.10;8.70;;;13.10;99.90;;;;;;7272223;32;20133;-55
2023/07/22 02:24:07;;;;;;;14.10;8.75;;;13.20;99.90;;;;;;7280715;32;20176;-55
2023/07/22 02:28:09;;;;;;;11.85;8.65;;;13.40;99.90;;;;;;7269879;32;20242;-55
2023/07/22 02:32:10;;;;;;;11.23;8.07;;;13.30;99.90;;;;;;7285370;32;20509;-55
2023/07/22 02:36:12;;;;;;;12.50;7.90;;;13.40;99.90;;;;;;7279025;32;20308;-55
2023/07/22 02:40:14;;;;;;;14.50;9.18;;;13.40;99.90;;;;;;7278377;32;20165;-55
2023/07/22 02:44:16;;;;;;;20.83;8.63;;;13.50;99.90;;;;;;7278842;32;20572;-55
2023/07/22 02:48:18;;;;;;;11.35;7.85;;;13.50;99.90;;;;;;7266276;32;20490;-55
2023/07/22 02:52:20;;;;;;;11.05;8.10;;;13.40;99.90;;;;;;7280058;32;20131;-55
2023/07/22 02:56:23;;;;;;;11.63;7.97;;;13.50;99.90;;;;;;7286694;32;20144;-55
2023/07/22 03:00:25;;;;;;;12.57;7.75;;;13.50;99.90;;;;;;7275002;32;20545;-55
2023/07/22 03:04:27;;;;;;;12.57;7.95;;;13.50;99.90;;;;;;7268865;32;20178;-55
2023/07/22 03:08:29;;;;;;;16.87;8.00;;;13.60;99.90;;;;;;7282116;32;20108;-55
2023/07/22 03:12:32;;;;;;;9.77;7.68;;;13.60;99.90;;;;;;7270027;32;20187;-55
2023/07/22 03:16:33;;;;;;;12.80;7.10;;;13.60;99.90;;;;;;7265909;32;20194;-55
2023/07/22 03:20:36;;;;;;;9.82;7.35;;;13.50;99.90;;;;;;7286229;32;20186;-55
2023/07/22 03:24:38;;;;;;;10.43;7.37;;;13.50;99.90;;;;;;7264249;32;20223;-55
2023/07/22 03:28:41;;;;;;;10.88;7.18;;;13.50;99.90;;;;;;7279218;32;20126;-55
2023/07/22 03:32:47;;;;;;;10.98;7.35;;;13.50;99.90;;;;;;7265553;32;20169;-55
2023/07/22 03:36:49;;;;;;;12.85;7.68;;;13.50;99.90;;;;;;7284289;32;20118;-55
2023/07/22 03:40:53;;;;;;;10.57;7.43;;;13.60;99.90;;;;;;7272602;32;20709;-55
2023/07/22 03:44:54;;;;;;;8.48;6.50;;;13.60;99.90;;;;;;7267567;32;20115;-55
2023/07/22 03:48:56;;;;;;;12.90;6.28;;;13.80;99.90;;;;;;7268666;32;20175;-55
2023/07/22 03:52:58;;;;;;;9.98;6.87;;;13.70;99.90;;;;;;7271264;32;20116;-55
2023/07/22 03:57:00;;;;;;;10.25;7.00;;;13.80;99.90;;;;;;7278330;32;20194;-56
2023/07/22 04:01:02;;;;;;;12.20;6.22;;;13.80;99.90;;;;;;7278953;32;20422;-56
2023/07/22 04:05:05;;;;;;;10.15;6.57;;;13.80;99.90;;;;;;7281652;32;20461;-56
2023/07/22 04:09:07;;;;;;;10.88;7.05;;;13.70;99.90;;;;;;7282692;32;20199;-55
2023/07/22 04:13:10;;;;;;;11.75;6.70;;;13.80;99.90;;;;;;7260169;32;20181;-55
2023/07/22 04:17:12;;;;;;;9.05;6.30;;;13.80;99.90;;;;;;7284288;32;20103;-56
2023/07/22 04:21:13;;;;;;;10.30;6.57;;;13.70;99.90;;;;;;7276133;32;20107;-56
2023/07/22 04:25:15;;;;;;;8.95;6.43;;;13.80;99.90;;;;;;7285668;32;20194;-55
2023/07/22 04:29:17;;;;;;;9.52;6.57;;;13.80;99.90;;;;;;7289137;32;20191;-55
2023/07/22 04:33:19;;;;;;;9.52;7.50;;;13.70;99.90;;;;;;7266089;32;20119;-56
2023/07/22 04:37:21;;;;;;;9.38;7.22;;;13.70;99.90;;;;;;7291101;32;20459;-55
2023/07/22 04:41:22;;;;;;;14.30;7.50;;;13.70;99.90;;;;;;7294703;32;20108;-56
2023/07/22 04:45:24;;;;;;;11.75;6.93;;;13.70;99.90;;;;;;7270867;32;20743;-55
2023/07/22 04:49:26;;;;;;;10.30;7.28;;;13.70;99.90;;;;;;7261052;32;20183;-55
2023/07/22 04:53:28;;;;;;;9.02;6.70;;;13.80;99.90;;;;;;7267589;32;20127;-55
2023/07/22 04:57:30;;;;;;;10.25;7.22;;;13.90;99.90;;;;;;7287505;32;20561;-55
2023/07/22 05:01:31;;;;;;;10.90;7.12;;;13.90;99.90;;;;;;7270748;32;20108;-55
2023/07/22 05:05:33;;;;;;;10.52;7.60;;;14.10;99.90;;;;;;7256845;32;20715;-55
2023/07/22 05:09:36;;;;;;;10.80;7.50;;;14.20;99.90;;;;;;7271220;32;20104;-55
2023/07/22 05:13:38;;;;;;;10.77;6.90;;;14.30;99.90;;;;;;7259826;32;20120;-55
2023/07/22 05:17:40;;;;;;;12.00;7.40;;;14.40;99.90;;;;;;7274402;32;20501;-55
2023/07/22 05:21:42;;;;;;;11.85;7.53;;;14.30;99.90;;;;;;7291164;32;20153;-55
2023/07/22 05:25:43;;;;;;;9.23;7.28;;;14.50;99.90;;;;;;7269933;32;20100;-55
2023/07/22 05:29:45;;;;;;;10.30;7.57;;;14.60;99.90;;;;;;7268885;32;20092;-56
2023/07/22 05:33:47;;;;;;;9.35;6.97;;;14.80;99.90;;;;;;7286907;32;20587;-55
2023/07/22 05:37:49;;;;;;;11.12;7.72;;;15.00;99.90;;;;;;7272818;32;20164;-56
2023/07/22 05:41:51;;;;;;;9.23;7.47;;;15.20;99.90;;;;;;7288180;32;20108;-55
2023/07/22 05:45:52;;;;;;;11.02;7.32;;;15.30;99.90;;;;;;7271124;32;20103;-55
2023/07/22 05:49:54;;;;;;;9.43;7.32;;;15.20;99.90;;;;;;7279973;32;20449;-55
2023/07/22 05:53:57;;;;;;;12.13;7.50;;;15.30;99.90;;;;;;7279100;32;20096;-55
2023/07/22 05:58:05;;;;;;;11.05;7.70;;;15.30;99.90;;;;;;7290180;32;20182;-56
2023/07/22 06:02:10;;;;;;;12.02;7.70;;;15.40;99.90;;;;;;7294726;32;20108;-56
2023/07/22 06:06:12;;;;;;;12.25;7.78;;;15.40;99.90;;;;;;7282438;32;20164;-56
2023/07/22 06:10:14;;;;;;;11.55;8.05;;;15.50;99.90;;;;;;7263572;32;20167;-55
2023/07/22 06:14:16;;;;;;;12.95;7.87;;;15.60;99.90;;;;;;7278450;32;20489;-55
2023/07/22 06:18:18;;;;;;;10.23;8.38;;;15.80;99.90;;;;;;7286789;32;20506;-55
2023/07/22 06:22:20;;;;;;;10.70;6.90;;;16.30;99.90;;;;;;7291943;32;20387;-55
2023/07/22 06:26:21;;;;;;;10.65;7.15;;;17.40;99.90;;;;;;7280180;32;20127;-55
2023/07/22 06:30:24;;;;;;;13.35;7.07;;;18.50;99.90;;;;;;7286744;32;20104;-55
2023/07/22 06:34:26;;;;;;;10.50;7.20;;;19.30;99.90;;;;;;7267611;32;20212;-56
2023/07/22 06:38:28;;;;;;;10.20;7.22;;;19.20;99.90;;;;;;7265485;32;20139;-56
2023/07/22 06:42:30;;;;;;;10.57;7.00;;;19.30;99.90;;;;;;7281057;32;20189;-56
2023/07/22 06:46:32;;;;;;;13.85;6.82;;;18.80;99.90;;;;;;7278889;32;20112;-56
2023/07/22 06:50:33;;;;;;;9.88;6.30;;;18.40;99.90;;;;;;7283052;32;20150;-57
2023/07/22 06:54:35;;;;;;;8.65;6.45;;;18.20;99.90;;;;;;7289694;32;20096;-57
2023/07/22 06:58:37;;;;;;;9.63;6.55;;;18.60;99.90;;;;;;7286760;32;20097;-57
2023/07/22 07:02:39;;;;;;;8.80;6.43;;;18.50;99.90;;;;;;7284323;32;20118;-57
2023/07/22 07:06:41;;;;;;;11.20;6.15;;;18.50;99.90;;;;;;7257785;32;20130;-57
2023/07/22 07:10:42;;;;;;;8.27;6.32;;;18.80;99.90;;;;;;7274576;32;20174;-57
2023/07/22 07:14:44;;;;;;;13.20;6.80;;;19.00;99.90;;;;;;7275515;32;20261;-56
2023/07/22 07:18:46;;;;;;;9.63;6.72;;;19.20;99.90;;;;;;7269615;32;20118;-57
2023/07/22 07:22:47;;;;;;;8.68;6.15;;;19.40;99.90;;;;;;7277481;32;20100;-57
2023/07/22 07:26:49;;;;;;;7.93;6.35;;;19.60;99.90;;;;;;7269622;32;20514;-57
2023/07/22 07:30:51;;;;;;;8.30;6.32;;;19.90;99.90;;;;;;7283837;32;20150;-57
2023/07/22 07:34:53;;;;;;;10.63;6.28;;;19.80;99.90;;;;;;7283203;32;20174;-57
2023/07/22 07:38:55;;;;;;;13.27;7.15;;;19.80;99.90;;;;;;7287967;32;20126;-57
2023/07/22 07:42:57;;;;;;;11.77;6.95;;;19.80;99.90;;;;;;7276669;32;20100;-57
2023/07/22 07:46:58;;;;;;;8.30;6.62;;;19.80;99.90;;;;;;7271846;32;20108;-57
2023/07/22 07:51:00;;;;;;;13.52;6.40;;;19.70;99.90;;;;;;7283487;32;20120;-57
2023/07/22 07:55:02;;;;;;;11.82;7.12;;;19.40;99.90;;;;;;7275667;32;20104;-57
2023/07/22 07:59:05;;;;;;;9.65;6.57;;;19.10;99.90;;;;;;7284234;32;20431;-56
2023/07/22 08:03:07;;;;;;;7.85;6.50;;;18.80;99.90;;;;;;7262101;32;20743;-57
2023/07/22 08:07:09;;;;;;;9.25;6.57;;;18.80;99.90;;;;;;7283462;32;20105;-56
2023/07/22 08:11:13;;;;;;;11.63;6.72;;;18.80;99.90;;;;;;7280806;32;20674;-57
2023/07/22 08:15:15;;;;;;;10.20;6.72;;;18.90;99.90;;;;;;7274913;32;20108;-57
2023/07/22 08:19:16;;;;;;;9.88;6.85;;;19.10;99.90;;;;;;7280087;32;20111;-57
2023/07/22 08:23:19;;;;;;;11.70;6.20;;;19.40;99.90;;;;;;7266877;32;20231;-57
2023/07/22 08:27:23;;;;;;;10.40;7.10;;;19.70;99.90;;;;;;7278153;32;20120;-56
2023/07/22 08:31:25;;;;;;;11.15;7.72;;;19.90;99.90;;;;;;7284204;32;20100;-56
2023/07/22 08:35:27;;;;;;;8.73;6.20;;;20.20;99.90;;;;;;7274764;32;20513;-57
2023/07/22 08:39:28;;;;;;;10.95;7.50;;;20.60;99.90;;;;;;7271575;32;20210;-57
2023/07/22 08:43:32;;;;;;;10.18;6.35;;;21.00;99.90;;;;;;7283417;32;20595;-57
2023/07/22 08:47:34;;;;;;;12.35;6.47;;;21.30;99.90;;;;;;7285799;32;20151;-57
2023/07/22 08:51:37;;;;;;;7.97;6.62;;;21.60;99.90;;;;;;7284495;32;20129;-57
2023/07/22 08:55:40;;;;;;;10.18;6.18;;;21.50;99.90;;;;;;7272867;32;20217;-57
2023/07/22 08:59:43;;;;;;;12.18;6.12;;;21.40;99.90;;;;;;7285063;32;20145;-57
2023/07/22 09:03:48;;;;;;;10.80;5.47;;;21.20;99.90;;;;;;7279799;32;20153;-57
2023/07/22 09:07:52;;;;;;;9.68;5.70;;;21.30;99.90;;;;;;7272204;32;20099;-57
2023/07/22 09:11:55;;;;;;;9.00;5.50;;;21.30;99.90;;;;;;7275483;32;20146;-57
2023/07/22 09:15:58;;;;;;;8.55;5.70;;;21.50;99.90;;;;;;7292956;32;20104;-57
2023/07/22 09:20:00;;;;;;;7.65;5.00;;;21.60;99.90;;;;;;7275116;32;20115;-57
2023/07/22 09:24:23;;;;;;;6.87;4.65;;;21.50;99.90;;;;;;7278474;32;20100;-57
2023/07/22 09:28:24;;;;;;;8.30;4.35;;;21.50;99.90;;;;;;7288153;32;20130;-57
2023/07/22 09:32:39;;;;;;;6.22;4.62;;;21.90;99.90;;;;;;7291070;32;20112;-57
2023/07/22 09:36:55;;;;;;;10.13;4.57;;;21.80;99.90;;;;;;7289554;32;20139;-57
2023/07/22 09:40:57;;;;;;;6.82;4.65;;;21.60;99.90;;;;;;7289725;32;20134;-57
2023/07/22 09:44:59;;;;;;;6.18;4.35;;;21.40;99.90;;;;;;7271806;32;20140;-57
2023/07/22 09:49:05;;;;;;;4.93;3.92;;;21.40;99.90;;;;;;7285803;32;20130;-57
2023/07/22 09:53:07;;;;;;;6.20;4.03;;;21.30;99.90;;;;;;7292454;32;20111;-57
2023/07/22 09:57:13;;;;;;;5.68;4.03;;;20.90;99.90;;;;;;7288916;32;20644;-57
2023/07/22 10:01:19;;;;;;;5.90;3.30;;;20.70;99.90;;;;;;7292385;32;20458;-56
2023/07/22 10:05:21;;;;;;;4.30;3.50;;;21.20;99.90;;;;;;7266952;32;20888;-57
2023/07/22 10:09:26;;;;;;;7.80;3.50;;;21.50;99.90;;;;;;7268658;32;20134;-57
2023/07/22 10:13:28;;;;;;;5.97;3.10;;;21.90;99.90;;;;;;7282574;32;20112;-57
2023/07/22 10:17:30;;;;;;;5.57;2.83;;;22.20;99.90;;;;;;7295214;32;20263;-57
2023/07/22 10:21:33;;;;;;;4.37;2.55;;;22.40;99.90;;;;;;7281736;32;20163;-57
2023/07/22 10:25:36;;;;;;;4.80;2.28;;;22.80;99.90;;;;;;7290781;32;20442;-57
2023/07/22 10:29:39;;;;;;;5.80;2.42;;;23.60;99.90;;;;;;7285784;32;20140;-57
2023/07/22 10:33:41;;;;;;;4.30;2.10;;;23.70;98.00;;;;;;7281412;32;20442;-57
2023/07/22 10:37:45;;;;;;;4.05;2.25;;;23.70;98.90;;;;;;7274978;32;20576;-57
2023/07/22 10:41:47;;;;;;;2.67;2.15;;;23.90;97.10;;;;;;7267557;32;20178;-57
2023/07/22 10:45:51;;;;;;;4.47;2.12;;;23.50;97.00;;;;;;7274661;32;20153;-57
2023/07/22 10:49:54;;;;;;;3.37;2.03;;;23.20;98.70;;;;;;7275110;32;20260;-55
2023/07/22 10:53:56;;;;;;;3.80;2.25;;;23.20;97.90;;;;;;7266002;32;20178;-57
2023/07/22 10:58:05;;;;;;;4.97;2.30;;;23.70;99.80;;;;;;7286101;32;20249;-58
2023/07/22 11:02:22;;;;;;;3.12;2.20;;;23.80;95.50;;;;;;7270209;32;20112;-57
2023/07/22 11:06:25;;;;;;;4.22;2.10;;;23.80;96.70;;;;;;7287006;32;20146;-57
2023/07/22 11:10:28;;;;;;;3.05;1.73;;;24.00;95.70;;;;;;7287261;32;20189;-57
2023/07/22 11:14:34;;;;;;;2.75;1.70;;;24.10;97.80;;;;;;7278114;32;20212;-57
2023/07/22 11:18:39;;;;;;;2.83;1.60;;;24.50;94.70;;;;;;7294097;32;20512;-57
2023/07/22 11:22:43;;;;;;;2.43;1.83;;;24.30;94.90;;;;;;7293275;32;20117;-57
2023/07/22 11:26:46;;;;;;;4.00;1.83;;;24.30;92.40;;;;;;7283411;32;20549;-58
2023/07/22 11:30:48;;;;;;;5.30;1.58;;;24.50;94.80;;;;;;7283441;32;20162;-57
2023/07/22 11:34:53;;;;;;;2.67;1.77;;;24.20;93.10;;;;;;7283195;32;20183;-58
2023/07/22 11:39:03;;;;;;;2.05;1.50;;;24.50;94.50;;;;;;7286076;32;20120;-57
2023/07/22 11:43:05;;;;;;;2.40;1.55;;;24.50;92.60;;;;;;7262202;32;20104;-57
2023/07/22 11:47:07;;;;;;;6.45;1.45;;;24.20;93.00;;;;;;7272843;32;20116;-57
2023/07/22 11:51:09;;;;;;;3.03;1.60;;;23.90;92.50;;;;;;7285130;32;20108;-57
2023/07/22 11:55:11;;;;;;;2.75;1.70;;;24.40;92.80;;;;;;7287757;32;20112;-57
2023/07/22 11:59:39;;;;;;;1.58;1.33;;;24.50;91.00;;;;;;7272294;32;20120;-57
2023/07/22 12:03:41;;;;;;;2.40;1.60;;;24.20;90.80;;;;;;7275749;32;20157;-57
2023/07/22 12:07:43;;;;;;;4.90;1.87;;;23.90;91.30;;;;;;7264973;32;20172;-57
2023/07/22 12:11:45;;;;;;;5.20;2.00;;;23.60;91.80;;;;;;7286991;32;20112;-57
2023/07/22 12:16:02;;;;;;;3.65;2.12;;;23.90;93.00;;;;;;7290062;32;20116;-57
2023/07/22 12:20:06;;;;;;;3.87;2.25;;;23.70;92.40;;;;;;7289061;32;20821;-57
2023/07/22 12:24:07;;;;;;;3.12;2.10;;;23.80;93.20;;;;;;7271641;32;20470;-57
2023/07/22 12:28:10;;;;;;;5.32;2.25;;;24.00;93.00;;;;;;7291369;32;20100;-57
2023/07/22 12:32:12;;;;;;;7.60;2.25;;;24.10;92.70;;;;;;7290516;32;20117;-57
2023/07/22 12:36:14;;;;;;;4.43;2.10;;;23.50;94.50;;;;;;7297367;32;20454;-57
2023/07/22 12:40:16;;;;;;;3.80;2.40;;;23.90;93.20;;;;;;7279879;32;20112;-57
2023/07/22 12:44:17;;;;;;;2.80;2.12;;;24.30;91.20;;;;;;7296349;32;20553;-57
2023/07/22 12:48:19;;;;;;;5.18;2.83;;;24.20;91.90;;;;;;7294483;32;20207;-57
2023/07/22 12:52:21;;;;;;;5.85;2.10;;;23.80;91.60;;;;;;7283132;32;20132;-57
2023/07/22 12:56:23;;;;;;;5.07;2.37;;;24.00;90.30;;;;;;7276723;32;20108;-57
2023/07/22 13:00:25;;;;;;;3.00;2.33;;;23.90;91.10;;;;;;7268828;32;20100;-56
2023/07/22 13:04:26;;;;;;;3.72;2.08;;;23.90;91.20;;;;;;7277777;32;20103;-56
2023/07/22 13:08:28;;;;;;;3.40;2.00;;;24.10;90.50;;;;;;7289909;32;20469;-56
2023/07/22 13:12:30;;;;;;;4.47;1.85;;;24.20;89.30;;;;;;7260630;32;20210;-56
2023/07/22 13:16:32;;;;;;;5.05;2.10;;;24.30;89.90;;;;;;7301594;32;20142;-56
2023/07/22 13:20:33;;;;;;;5.85;1.95;;;24.40;87.10;;;;;;7289746;32;20115;-56
2023/07/22 13:24:35;;;;;;;3.40;1.77;;;24.50;87.60;;;;;;7272139;32;20134;-56
2023/07/22 13:28:37;;;;;;;2.87;1.95;;;24.20;86.50;;;;;;7290907;32;20120;-56
2023/07/22 13:32:39;;;;;;;5.07;2.00;;;24.20;85.40;;;;;;7290500;32;20745;-56
2023/07/22 13:36:42;;;;;;;3.40;1.73;;;24.60;85.20;;;;;;7290140;32;20116;-56
2023/07/22 13:40:44;;;;;;;3.40;1.95;;;24.80;81.70;;;;;;7266795;32;20124;-56
2023/07/22 13:44:46;;;;;;;3.92;2.28;;;24.60;80.10;;;;;;7291784;32;20138;-56
2023/07/22 13:48:48;;;;;;;3.17;2.03;;;24.20;79.90;;;;;;7290110;32;20148;-56
2023/07/22 13:52:50;;;;;;;3.30;2.03;;;24.00;80.20;;;;;;7269042;32;20250;-56
2023/07/22 13:56:52;;;;;;;4.87;2.35;;;24.10;78.90;;;;;;7291849;32;20129;-56
2023/07/22 14:00:54;;;;;;;3.92;2.10;;;24.10;79.40;;;;;;7277828;32;20112;-56
2023/07/22 14:04:55;;;;;;;3.37;2.42;;;24.00;79.00;;;;;;7279823;32;20548;-57
2023/07/22 14:08:57;;;;;;;3.60;2.55;;;24.00;79.90;;;;;;7281393;32;20104;-56
2023/07/22 14:12:59;;;;;;;4.75;2.50;;;24.00;79.70;;;;;;7287070;32;20166;-57
2023/07/22 14:17:01;;;;;;;5.15;2.72;;;24.40;79.70;;;;;;7286553;32;20153;-57
2023/07/22 14:21:04;;;;;;;4.87;2.70;;;24.40;77.20;;;;;;7267881;32;20177;-56
2023/07/22 14:25:06;;;;;;;6.37;2.60;;;24.60;78.80;;;;;;7277121;32;20161;-56
2023/07/22 14:29:08;;;;;;;5.62;2.50;;;24.80;77.10;;;;;;7276064;32;20104;-57
2023/07/22 14:33:10;;;;;;;8.20;2.62;;;24.80;78.20;;;;;;7275704;32;20210;-56
2023/07/22 14:37:11;;;;;;;4.40;2.55;;;25.00;76.70;;;;;;7285729;32;20138;-56
2023/07/22 14:41:13;;;;;;;4.30;2.60;;;25.20;76.60;;;;;;7288786;32;20104;-56
2023/07/22 14:45:15;;;;;;;4.85;2.70;;;24.60;76.30;;;;;;7284050;32;20577;-56
2023/07/22 14:49:17;;;;;;;5.22;2.45;;;24.10;78.30;;;;;;7289181;32;20115;-57
2023/07/22 14:53:18;;;;;;;5.62;2.70;;;24.20;78.90;;;;;;7279867;32;20759;-56
2023/07/22 14:57:20;;;;;;;4.43;2.33;;;24.10;80.40;;;;;;7270632;32;20154;-57
2023/07/22 15:01:22;;;;;;;5.90;2.72;;;24.10;81.90;;;;;;7273683;32;20127;-57
2023/07/22 15:05:24;;;;;;;4.28;2.75;;;24.10;82.70;;;;;;7283348;32;20108;-56
2023/07/22 15:09:26;;;;;;;4.00;2.50;;;24.60;80.60;;;;;;7268458;32;20108;-57
2023/07/22 15:13:28;;;;;;;4.25;2.50;;;24.40;78.30;;;;;;7289952;32;20168;-57
2023/07/22 15:17:32;;;;;;;7.82;2.45;;;24.00;80.40;;;;;;7267972;32;20130;-56
2023/07/22 15:21:33;;;;;;;5.57;2.22;;;23.70;79.70;;;;;;7282515;32;20208;-57
2023/07/22 15:25:35;;;;;;;3.85;2.45;;;23.70;82.30;;;;;;7289633;32;20126;-56
2023/07/22 15:29:37;;;;;;;3.75;2.33;;;23.80;82.40;;;;;;7293038;32;20130;-56
2023/07/22 15:33:39;;;;;;;4.57;2.45;;;23.80;82.30;;;;;;7290215;32;20434;-57
2023/07/22 15:37:40;;;;;;;3.92;2.17;;;23.60;80.70;;;;;;7274926;32;20629;-57
2023/07/22 15:41:42;;;;;;;4.85;2.05;;;23.50;82.60;;;;;;7282602;32;20124;-56
2023/07/22 15:45:44;;;;;;;2.95;1.95;;;23.20;84.80;;;;;;7266066;32;20108;-56
2023/07/22 15:49:46;;;;;;;5.95;1.95;;;23.00;84.90;;;;;;7280146;32;20239;-56
2023/07/22 15:53:48;;;;;;;6.62;1.80;;;22.90;85.10;;;;;;7279307;32;20116;-57
2023/07/22 15:57:49;;;;;;;2.60;1.58;;;22.80;84.90;;;;;;7264920;32;20108;-56
2023/07/22 16:01:51;;;;;;;5.15;1.70;;;22.70;87.00;;;;;;7265812;32;20140;-56
2023/07/22 16:05:53;;;;;;;3.80;1.87;;;22.70;86.00;;;;;;7270542;32;20275;-56
2023/07/22 16:09:55;;;;;;;3.12;1.77;;;22.70;85.70;;;;;;7287702;32;20169;-56
2023/07/22 16:13:57;;;;;;;2.58;1.50;;;22.60;86.90;;;;;;7290965;32;20129;-57
2023/07/22 16:17:58;;;;;;;4.78;1.42;;;22.50;86.20;;;;;;7279187;32;20135;-56
2023/07/22 16:22:00;;;;;;;4.82;1.87;;;22.60;86.20;;;;;;7266081;32;20215;-56
2023/07/22 16:26:02;;;;;;;4.35;1.80;;;22.70;87.70;;;;;;7286008;32;20120;-57
2023/07/22 16:30:10;;;;;;;4.18;1.52;;;22.70;86.70;;;;;;7271317;32;20140;-56
2023/07/22 16:34:12;;;;;;;4.95;2.00;;;22.50;88.10;;;;;;7277725;32;20120;-56
2023/07/22 16:38:13;;;;;;;5.43;2.42;;;22.40;86.50;;;;;;7287899;32;20501;-56
2023/07/22 16:42:15;;;;;;;5.87;2.33;;;22.30;87.70;;;;;;7278141;32;20100;-57
2023/07/22 16:46:17;;;;;;;5.62;2.10;;;22.20;88.30;;;;;;7289308;32;20128;-57
2023/07/22 16:50:19;;;;;;;4.82;2.30;;;22.10;88.40;;;;;;7270696;32;20422;-56
2023/07/22 16:54:21;;;;;;;3.95;2.40;;;22.10;90.50;;;;;;7271360;32;20211;-56
2023/07/22 16:58:23;;;;;;;5.22;2.70;;;22.20;89.70;;;;;;7294151;32;20359;-57
2023/07/22 17:02:26;;;;;;;6.05;2.72;;;22.30;87.90;;;;;;7285064;32;20242;-57
2023/07/22 17:06:29;;;;;;;6.57;2.70;;;22.20;87.60;;;;;;7277813;32;20138;-57
2023/07/22 17:10:31;;;;;;;5.35;2.60;;;22.10;88.10;;;;;;7270616;32;20127;-57
2023/07/22 17:14:33;;;;;;;6.32;2.67;;;22.10;89.30;;;;;;7298546;32;20192;-57
2023/07/22 17:18:35;;;;;;;4.78;2.85;;;22.10;90.10;;;;;;7292794;32;20104;-57
2023/07/22 17:22:37;;;;;;;3.47;2.50;;;22.00;90.30;;;;;;7281379;32;20186;-57
2023/07/22 17:26:39;;;;;;;7.12;2.90;;;21.90;90.00;;;;;;7294071;32;20139;-57
2023/07/22 17:30:40;;;;;;;5.25;2.50;;;21.80;90.30;;;;;;7257317;32;20426;-57
2023/07/22 17:34:42;;;;;;;5.20;2.45;;;21.70;90.50;;;;;;7290202;32;20099;-57
2023/07/22 17:38:44;;;;;;;3.87;2.20;;;21.70;91.10;;;;;;7282176;32;20140;-57
2023/07/22 17:42:46;;;;;;;4.30;2.37;;;21.60;91.30;;;;;;7288295;32;20104;-57
2023/07/22 17:46:47;;;;;;;4.43;2.53;;;21.60;92.00;;;;;;7290789;32;20140;-57
2023/07/22 17:50:49;;;;;;;5.35;2.42;;;21.60;92.30;;;;;;7290127;32;20135;-57
2023/07/22 17:54:51;;;;;;;3.33;2.05;;;21.50;92.50;;;;;;7291508;32;20252;-57
2023/07/22 17:58:53;;;;;;;4.97;2.42;;;21.40;92.80;;;;;;7276333;32;20134;-57
2023/07/22 18:02:55;;;;;;;8.40;2.58;;;21.20;93.20;;;;;;7272932;32;20156;-57
2023/07/22 18:06:57;;;;;;;5.05;2.10;;;21.10;93.40;;;;;;7286269;32;20111;-57
2023/07/22 18:10:59;;;;;;;5.07;2.08;;;21.10;93.50;;;;;;7289304;32;20138;-57
2023/07/22 18:15:01;;;;;;;7.78;2.00;;;21.00;93.70;;;;;;7285244;32;20653;-57
2023/07/22 18:19:02;;;;;;;5.95;2.30;;;21.00;94.80;;;;;;7299681;32;20108;-56
2023/07/22 18:23:04;;;;;;;4.80;1.92;;;20.90;94.30;;;;;;7278939;32;20150;-57
2023/07/22 18:27:06;;;;;;;3.55;1.80;;;20.90;94.40;;;;;;7290211;32;20119;-57
2023/07/22 18:31:08;;;;;;;4.90;2.20;;;20.80;94.20;;;;;;7291258;32;20107;-58
2023/07/22 18:35:09;;;;;;;2.85;1.98;;;20.80;94.70;;;;;;7285018;32;20124;-57
2023/07/22 18:39:11;;;;;;;4.57;1.80;;;20.80;93.70;;;;;;7284968;32;20238;-57
2023/07/22 18:43:13;;;;;;;8.63;1.83;;;20.70;93.90;;;;;;7287160;32;20173;-58
2023/07/22 18:47:16;;;;;;;5.55;1.77;;;20.70;94.20;;;;;;7287942;32;20460;-57
2023/07/22 18:51:17;;;;;;;4.45;2.03;;;20.70;94.60;;;;;;7276174;32;20475;-57
2023/07/22 18:55:21;;;;;;;5.95;1.98;;;20.60;94.40;;;;;;7273635;32;20169;-57
2023/07/22 18:59:23;;;;;;;6.60;2.30;;;20.70;94.40;;;;;;7279963;32;20123;-57
2023/07/22 19:03:25;;;;;;;10.23;2.03;;;20.60;93.80;;;;;;7272353;32;20192;-57
2023/07/22 19:07:27;;;;;;;4.62;2.03;;;20.50;94.00;;;;;;7281057;32;20108;-57
2023/07/22 19:11:29;;;;;;;7.00;2.17;;;20.50;94.30;;;;;;7280108;32;20112;-57
2023/07/22 19:15:32;;;;;;;4.57;2.22;;;20.40;94.50;;;;;;7273391;32;20286;-58
2023/07/22 19:19:34;;;;;;;6.05;2.03;;;20.40;95.00;;;;;;7292425;32;20581;-57
2023/07/22 19:23:36;;;;;;;4.78;1.98;;;20.30;95.50;;;;;;7283215;32;20116;-57
2023/07/22 19:27:37;;;;;;;5.20;1.85;;;20.20;96.10;;;;;;7289765;32;20466;-57
2023/07/22 19:31:39;;;;;;;3.58;1.73;;;20.20;95.60;;;;;;7270460;32;20223;-57
2023/07/22 19:35:41;;;;;;;6.85;1.73;;;20.20;95.40;;;;;;7273085;32;20269;-57
2023/07/22 19:39:43;;;;;;;3.75;1.80;;;20.20;95.30;;;;;;7281008;32;20190;-57
2023/07/22 19:43:45;;;;;;;5.85;1.80;;;20.10;95.40;;;;;;7278961;32;20755;-57
2023/07/22 19:47:46;;;;;;;7.22;1.90;;;20.20;95.80;;;;;;7275850;32;20434;-56
2023/07/22 19:51:48;;;;;;;5.57;1.83;;;20.10;95.70;;;;;;7276918;32;20111;-56
2023/07/22 19:55:50;;;;;;;5.62;1.92;;;20.00;96.20;;;;;;7286318;32;20337;-56
2023/07/22 19:59:52;;;;;;;4.97;1.85;;;20.00;96.60;;;;;;7283544;32;20136;-56
2023/07/22 20:03:54;;;;;;;4.68;1.67;;;20.00;97.00;;;;;;7282891;32;20147;-56
2023/07/22 20:07:56;;;;;;;4.10;1.70;;;20.00;96.80;;;;;;7271530;32;20134;-56
2023/07/22 20:11:58;;;;;;;4.05;1.70;;;19.90;97.70;;;;;;7276865;32;20108;-56
2023/07/22 20:16:01;;;;;;;5.65;1.75;;;19.70;98.10;;;;;;7284029;32;20100;-56
2023/07/22 20:20:04;;;;;;;4.40;1.65;;;19.70;98.80;;;;;;7284725;32;20099;-56
2023/07/22 20:24:06;;;;;;;5.05;1.92;;;19.80;98.60;;;;;;7273645;32;20112;-57
2023/07/22 20:28:08;;;;;;;5.12;1.90;;;19.70;99.00;;;;;;7274951;32;22032;-54
2023/07/22 20:32:09;;;;;;;7.35;2.60;;;19.60;99.90;;;;;;7261082;32;20584;-54
2023/07/22 20:36:29;;;;;;;3.70;2.25;;;19.40;99.90;;;;;;7280222;32;20227;-54
2023/07/22 20:40:30;;;;;;;3.33;2.08;;;19.30;99.90;;;;;;7279102;32;20172;-54
2023/07/22 20:44:32;;;;;;;4.32;2.12;;;19.20;99.90;;;;;;7283188;32;20608;-54
2023/07/22 20:48:34;;;;;;;7.37;1.73;;;19.00;99.90;;;;;;7285327;32;20157;-54
2023/07/22 20:52:36;;;;;;;2.75;1.90;;;18.80;99.90;;;;;;7283371;32;20136;-55
2023/07/22 20:56:38;;;;;;;7.05;2.08;;;18.70;99.90;;;;;;7289970;32;20169;-54